Time;durP1;ratioP1;P1;durP2;ratioP2;P2;SDS_P1;SDS_P2;PMS_P1;PMS_P2;Temp;Humidity;BMP_temperature;BMP_pressure;BME280_temperature;BME280_humidity;BME280_pressure;Samples;Min_cycle;Max_cycle;Signal;HPM_P1;HPM_P2
2021/11/02 00:02:11;;;;;;;1.65;1.65;;;6.90;99.90;;;;;;5038791;28;20245;-76
2021/11/02 00:04:38;;;;;;;1.42;1.42;;;7.00;99.90;;;;;;5040814;28;20212;-78
2021/11/02 00:07:06;;;;;;;1.80;1.70;;;7.00;99.90;;;;;;5042671;28;20226;-78
2021/11/02 00:09:37;;;;;;;1.55;1.55;;;7.10;99.90;;;;;;5039688;28;20207;-77
2021/11/02 00:12:05;;;;;;;1.80;1.70;;;7.10;99.90;;;;;;5041676;28;20597;-78
2021/11/02 00:14:32;;;;;;;1.80;1.70;;;7.10;99.90;;;;;;5038557;28;20222;-78
2021/11/02 00:17:09;;;;;;;1.70;1.60;;;7.10;99.90;;;;;;5037242;28;20225;-77
2021/11/02 00:19:39;;;;;;;2.00;1.90;;;7.10;99.90;;;;;;5033955;28;20230;-78
2021/11/02 00:22:14;;;;;;;1.60;1.60;;;7.10;99.90;;;;;;5036108;28;20719;-78
2021/11/02 00:24:56;;;;;;;1.75;1.65;;;7.00;99.90;;;;;;5036128;28;20235;-77
2021/11/02 00:27:25;;;;;;;1.85;1.75;;;7.00;99.90;;;;;;5036788;28;20219;-78
2021/11/02 00:29:53;;;;;;;1.70;1.60;;;7.00;99.90;;;;;;5037063;28;20297;-77
2021/11/02 00:32:22;;;;;;;1.98;1.88;;;7.00;99.90;;;;;;5037612;28;20222;-78
2021/11/02 00:34:49;;;;;;;1.60;1.60;;;7.10;99.90;;;;;;5041460;28;20222;-78
2021/11/02 00:37:17;;;;;;;1.40;1.40;;;7.10;99.90;;;;;;5038953;28;20284;-77
2021/11/02 00:39:44;;;;;;;1.83;1.73;;;7.10;99.90;;;;;;5040932;28;20625;-77
2021/11/02 00:42:11;;;;;;;1.50;1.50;;;7.00;99.90;;;;;;5040425;28;20237;-77
2021/11/02 00:44:43;;;;;;;1.50;1.50;;;7.00;99.90;;;;;;5040326;28;20229;-77
2021/11/02 00:47:12;;;;;;;1.40;1.40;;;7.00;99.90;;;;;;5046510;28;20589;-77
2021/11/02 00:49:40;;;;;;;1.70;1.60;;;7.00;99.90;;;;;;5040023;28;20307;-78
2021/11/02 00:52:08;;;;;;;1.60;1.50;;;7.00;99.90;;;;;;5043663;28;20234;-78
2021/11/02 00:54:35;;;;;;;1.35;1.35;;;7.00;99.90;;;;;;5044853;28;20230;-78
2021/11/02 00:57:02;;;;;;;1.27;1.27;;;7.00;99.90;;;;;;5044791;28;20227;-78
2021/11/02 00:59:29;;;;;;;1.67;1.67;;;7.00;99.90;;;;;;5043869;28;20587;-78
2021/11/02 01:01:56;;;;;;;1.63;1.63;;;6.90;99.90;;;;;;5039657;28;20225;-77
2021/11/02 01:04:23;;;;;;;1.63;1.63;;;6.90;99.90;;;;;;5043378;28;20662;-78
2021/11/02 01:06:53;;;;;;;1.60;1.60;;;6.90;99.90;;;;;;5040088;28;20226;-77
2021/11/02 01:09:20;;;;;;;1.50;1.50;;;6.90;99.90;;;;;;5041545;28;20223;-77
2021/11/02 01:11:47;;;;;;;1.63;1.63;;;6.80;99.90;;;;;;5042690;28;20639;-77
2021/11/02 01:14:14;;;;;;;1.70;1.60;;;6.90;99.90;;;;;;5043268;28;20214;-77
2021/11/02 01:16:41;;;;;;;1.58;1.58;;;6.90;99.90;;;;;;5045145;28;20223;-77
2021/11/02 01:19:09;;;;;;;2.00;1.90;;;6.90;99.90;;;;;;5042745;28;20230;-78
2021/11/02 01:21:36;;;;;;;2.00;1.90;;;6.90;99.90;;;;;;5042455;28;20302;-77
2021/11/02 01:24:05;;;;;;;1.60;1.60;;;6.90;99.90;;;;;;5045357;28;20219;-77
2021/11/02 01:26:32;;;;;;;2.00;1.90;;;6.90;99.90;;;;;;5041035;28;20214;-78
2021/11/02 01:28:59;;;;;;;1.70;1.70;;;6.90;99.90;;;;;;5040255;28;20231;-78
2021/11/02 01:31:26;;;;;;;1.60;1.60;;;6.80;99.90;;;;;;5038505;28;20226;-77
2021/11/02 01:33:53;;;;;;;1.38;1.38;;;6.80;99.90;;;;;;5035659;28;20254;-77
2021/11/02 01:36:20;;;;;;;1.98;1.73;;;6.80;99.90;;;;;;5042633;28;20277;-77
2021/11/02 01:38:48;;;;;;;1.63;1.63;;;6.80;99.90;;;;;;5047644;28;20237;-77
2021/11/02 01:41:18;;;;;;;1.77;1.75;;;6.80;99.90;;;;;;5042435;28;20229;-77
2021/11/02 01:43:46;;;;;;;1.50;1.50;;;6.80;99.90;;;;;;5042268;28;20478;-78
2021/11/02 01:46:23;;;;;;;1.73;1.63;;;6.80;99.90;;;;;;5044011;28;20708;-77
2021/11/02 01:48:50;;;;;;;1.80;1.80;;;6.80;99.90;;;;;;5044638;28;20210;-77
2021/11/02 01:51:18;;;;;;;1.50;1.50;;;6.80;99.90;;;;;;5044603;28;20230;-77
2021/11/02 01:53:46;;;;;;;1.70;1.70;;;6.80;99.90;;;;;;5043620;28;20235;-77
2021/11/02 01:56:13;;;;;;;1.73;1.70;;;6.80;99.90;;;;;;5043799;28;20886;-77
2021/11/02 01:58:43;;;;;;;1.70;1.70;;;6.80;99.90;;;;;;5042673;28;20466;-77
2021/11/02 02:01:14;;;;;;;1.45;1.45;;;6.80;99.90;;;;;;5043676;28;20227;-77
2021/11/02 02:03:53;;;;;;;1.50;1.50;;;6.80;99.90;;;;;;5043928;28;20215;-77
2021/11/02 02:06:34;;;;;;;1.70;1.70;;;6.80;99.90;;;;;;5036963;28;20219;-77
2021/11/02 02:09:06;;;;;;;1.52;1.52;;;6.80;99.90;;;;;;5040507;28;20215;-79
2021/11/02 02:11:44;;;;;;;1.60;1.60;;;6.80;99.90;;;;;;5042196;28;20230;-78
2021/11/02 02:14:18;;;;;;;1.50;1.50;;;6.80;99.90;;;;;;5041351;28;20666;-77
2021/11/02 02:16:47;;;;;;;1.40;1.40;;;6.80;99.90;;;;;;5038930;28;20226;-77
2021/11/02 02:19:33;;;;;;;1.42;1.42;;;6.80;99.90;;;;;;5038692;28;21898;-76
2021/11/02 02:22:11;;;;;;;1.60;1.60;;;6.80;99.90;;;;;;5043670;28;20222;-77
2021/11/02 02:24:56;;;;;;;1.90;1.80;;;6.90;99.90;;;;;;5043259;28;20218;-77
2021/11/02 02:27:33;;;;;;;1.60;1.60;;;6.90;99.90;;;;;;5036128;28;20222;-77
2021/11/02 02:30:06;;;;;;;1.60;1.60;;;6.90;99.90;;;;;;5043725;28;20215;-77
2021/11/02 02:32:36;;;;;;;1.50;1.50;;;6.90;99.90;;;;;;5040776;28;20223;-77
2021/11/02 02:35:08;;;;;;;1.50;1.50;;;6.90;99.90;;;;;;5042901;28;20230;-78
2021/11/02 02:37:37;;;;;;;1.45;1.45;;;6.90;99.90;;;;;;5044475;28;20218;-78
2021/11/02 02:40:06;;;;;;;1.40;1.40;;;6.90;99.90;;;;;;5041336;28;21210;-78
2021/11/02 02:42:35;;;;;;;1.85;1.85;;;6.90;99.90;;;;;;5039359;28;20604;-77
2021/11/02 02:45:05;;;;;;;1.80;1.80;;;6.90;99.90;;;;;;5035950;28;20215;-78
2021/11/02 02:47:33;;;;;;;1.52;1.52;;;6.90;99.90;;;;;;5037255;28;20215;-78
2021/11/02 02:50:02;;;;;;;1.65;1.60;;;6.90;99.90;;;;;;5042725;28;20238;-78
2021/11/02 02:52:30;;;;;;;1.83;1.75;;;6.90;99.90;;;;;;5040461;28;20229;-78
2021/11/02 02:54:59;;;;;;;1.60;1.60;;;6.90;99.90;;;;;;5044407;28;20685;-77
2021/11/02 02:57:28;;;;;;;1.50;1.50;;;6.90;99.90;;;;;;5037300;28;20316;-78
2021/11/02 02:59:56;;;;;;;1.42;1.42;;;6.90;99.90;;;;;;5041659;28;20713;-78
2021/11/02 03:02:30;;;;;;;1.60;1.60;;;6.90;99.90;;;;;;5037315;28;20223;-78
2021/11/02 03:04:58;;;;;;;1.60;1.60;;;6.80;99.90;;;;;;5044586;28;20222;-78
2021/11/02 03:07:25;;;;;;;1.67;1.58;;;6.80;99.90;;;;;;5041648;28;20219;-78
2021/11/02 03:09:53;;;;;;;1.60;1.60;;;6.70;99.90;;;;;;5043157;28;20227;-77
2021/11/02 03:12:26;;;;;;;1.58;1.58;;;6.60;99.90;;;;;;5043283;28;20313;-78
2021/11/02 03:15:07;;;;;;;1.70;1.70;;;6.60;99.90;;;;;;5043602;28;20218;-77
2021/11/02 03:17:57;;;;;;;1.63;1.52;;;6.50;99.90;;;;;;5042782;28;20230;-77
2021/11/02 03:43:25;;;;;;;1.40;1.40;;;6.50;99.90;;;;;;5039958;28;20214;-76
2021/11/02 03:57:06;;;;;;;1.65;1.65;;;6.60;99.90;;;;;;5080786;28;20228;-68
2021/11/02 04:28:22;;;;;;;1.50;1.50;;;6.60;99.90;;;;;;5118739;27;20315;-69
2021/11/02 05:10:28;;;;;;;1.67;1.67;;;6.50;99.90;;;;;;5114976;27;20211;-68
2021/11/02 05:49:14;;;;;;;2.15;2.05;;;6.40;99.90;;;;;;5101865;27;20305;-67
2021/11/02 05:57:31;;;;;;;1.77;1.77;;;6.40;99.90;;;;;;5101120;27;20755;-68
2021/11/02 06:00:03;;;;;;;1.65;1.65;;;6.40;99.90;;;;;;5099501;27;20726;-67
2021/11/02 06:02:48;;;;;;;2.10;2.00;;;6.40;99.90;;;;;;5099767;27;20258;-68
2021/11/02 06:05:43;;;;;;;2.25;2.15;;;6.40;99.90;;;;;;5099330;27;20216;-67
2021/11/02 06:28:12;;;;;;;2.00;1.90;;;6.30;99.90;;;;;;5104390;27;20235;-67
2021/11/02 06:30:45;;;;;;;2.30;2.20;;;6.30;99.90;;;;;;5101895;27;20278;-67
2021/11/02 06:33:25;;;;;;;2.20;2.10;;;6.40;99.90;;;;;;5105860;27;20593;-68
2021/11/02 06:36:02;;;;;;;2.10;2.00;;;6.40;99.90;;;;;;5097218;27;20220;-67
2021/11/02 06:38:59;;;;;;;1.98;1.80;;;6.40;99.90;;;;;;5101234;27;20713;-67
2021/11/02 06:44:48;;;;;;;2.35;2.25;;;6.40;99.90;;;;;;5100269;27;20231;-67
2021/11/02 06:47:35;;;;;;;2.30;2.20;;;6.40;99.90;;;;;;5092113;27;20229;-67
2021/11/02 06:56:12;;;;;;;2.38;2.28;;;6.60;99.90;;;;;;5100773;27;20712;-67
2021/11/02 06:59:11;;;;;;;2.63;2.53;;;6.60;99.90;;;;;;5102801;27;20585;-67
2021/11/02 07:15:53;;;;;;;2.08;1.98;;;9.70;99.90;;;;;;5095070;27;20222;-68
2021/11/02 07:18:21;;;;;;;1.80;1.70;;;10.20;99.90;;;;;;5095757;27;20304;-69
2021/11/02 07:20:59;;;;;;;1.70;1.60;;;10.90;99.90;;;;;;5092762;27;20220;-70
2021/11/02 07:23:42;;;;;;;1.63;1.55;;;11.40;99.90;;;;;;5090700;27;20223;-70
2021/11/02 07:26:22;;;;;;;2.08;1.98;;;11.80;99.90;;;;;;5090987;27;20229;-69
2021/11/02 08:47:27;;;;;;;1.80;1.70;;;16.20;99.90;;;;;;5098004;27;20227;-68
2021/11/02 08:49:55;;;;;;;1.73;1.63;;;16.50;99.90;;;;;;5098850;27;20308;-68
2021/11/02 08:52:22;;;;;;;2.67;1.60;;;16.60;99.90;;;;;;5098292;27;20250;-68
2021/11/02 08:54:51;;;;;;;1.75;1.65;;;16.60;99.90;;;;;;5099495;27;20302;-68
2021/11/02 08:57:20;;;;;;;3.00;1.77;;;16.50;99.90;;;;;;5101737;27;20244;-68
2021/11/02 08:59:48;;;;;;;1.50;1.40;;;16.50;99.90;;;;;;5111921;27;20216;-69
2021/11/02 09:02:26;;;;;;;1.58;1.48;;;16.70;99.90;;;;;;5095320;27;20227;-68
2021/11/02 09:05:02;;;;;;;1.63;1.52;;;16.70;99.90;;;;;;5096732;27;20224;-69
2021/11/02 09:07:29;;;;;;;1.50;1.40;;;16.60;99.90;;;;;;5095834;27;20227;-68
2021/11/02 09:09:58;;;;;;;1.45;1.35;;;16.60;99.90;;;;;;5100105;27;20760;-68
2021/11/02 09:12:31;;;;;;;1.35;1.25;;;16.70;99.90;;;;;;5100418;27;20225;-69
2021/11/02 09:15:01;;;;;;;1.25;1.23;;;17.00;99.90;;;;;;5097072;27;20220;-68
2021/11/02 09:17:33;;;;;;;2.35;1.40;;;17.10;99.90;;;;;;5101386;27;20248;-68
2021/11/02 09:20:02;;;;;;;1.30;1.20;;;16.80;99.90;;;;;;5097649;27;20259;-68
2021/11/02 09:22:31;;;;;;;1.50;1.40;;;16.40;99.90;;;;;;5099381;27;20235;-67
2021/11/02 09:25:00;;;;;;;1.60;1.50;;;16.30;99.90;;;;;;5100380;27;20208;-68
2021/11/02 09:27:27;;;;;;;1.33;1.33;;;16.50;99.90;;;;;;5099860;27;20276;-68
2021/11/02 09:29:56;;;;;;;1.63;1.52;;;16.60;99.90;;;;;;5101867;27;20232;-68
2021/11/02 09:32:25;;;;;;;1.33;1.23;;;16.80;99.90;;;;;;5081643;27;20223;-68
2021/11/02 09:34:54;;;;;;;1.77;1.63;;;17.20;99.90;;;;;;5111885;27;20277;-68
2021/11/02 09:37:31;;;;;;;1.40;1.30;;;17.30;99.90;;;;;;5091503;27;20232;-68
2021/11/02 09:40:08;;;;;;;2.88;1.70;;;17.00;99.90;;;;;;5095908;27;20712;-69
2021/11/02 09:43:22;;;;;;;3.47;1.45;;;16.80;99.90;;;;;;5113702;27;20249;-68
2021/11/02 09:46:23;;;;;;;1.40;1.30;;;16.90;99.90;;;;;;5096644;27;20566;-69
2021/11/02 09:49:41;;;;;;;1.88;1.70;;;17.30;99.90;;;;;;5178398;22;20831;-76
2021/11/02 09:52:53;;;;;;;1.70;1.60;;;17.40;99.90;;;;;;4952266;28;20234;-76
2021/11/02 09:55:37;;;;;;;1.70;1.60;;;17.60;99.90;;;;;;4953497;28;20222;-78
2021/11/02 09:58:17;;;;;;;3.47;1.55;;;17.50;99.90;;;;;;5029706;28;20274;-77
2021/11/02 10:01:03;;;;;;;1.27;1.23;;;17.60;99.90;;;;;;5029065;28;20269;-79
2021/11/02 10:04:14;;;;;;;1.85;1.33;;;17.50;99.90;;;;;;5021957;28;20211;-77
2021/11/02 10:07:17;;;;;;;1.38;1.25;;;17.60;99.90;;;;;;4982558;28;20225;-76
2021/11/02 10:09:57;;;;;;;1.25;1.25;;;17.60;99.90;;;;;;4981035;28;20707;-77
2021/11/02 10:12:25;;;;;;;1.60;1.50;;;17.40;99.90;;;;;;5015503;28;20722;-78
2021/11/02 10:15:06;;;;;;;1.88;1.67;;;17.20;99.90;;;;;;5023400;28;20602;-77
2021/11/02 10:18:07;;;;;;;1.33;1.17;;;17.20;99.90;;;;;;5022610;28;20235;-77
2021/11/02 10:21:02;;;;;;;1.40;1.30;;;17.40;99.90;;;;;;5022659;28;21979;-78
2021/11/02 10:23:44;;;;;;;1.40;1.30;;;17.20;99.90;;;;;;5027447;28;20733;-77
2021/11/02 10:26:40;;;;;;;2.05;1.50;;;17.10;99.90;;;;;;5024022;28;20608;-75
2021/11/02 10:32:15;;;;;;;2.33;1.20;;;16.80;99.90;;;;;;5021115;28;20884;-75
2021/11/02 10:34:59;;;;;;;4.03;1.52;;;16.40;99.90;;;;;;5025044;28;20219;-76
2021/11/02 10:37:32;;;;;;;1.70;1.60;;;16.30;99.90;;;;;;5020044;28;20744;-76
2021/11/02 10:40:26;;;;;;;1.85;1.20;;;16.20;99.90;;;;;;5023230;28;20227;-76
2021/11/02 10:43:41;;;;;;;1.80;1.67;;;16.40;99.90;;;;;;5005399;28;20721;-77
2021/11/02 10:46:11;;;;;;;1.40;1.30;;;16.60;99.90;;;;;;5020568;28;20227;-77
2021/11/02 10:48:42;;;;;;;1.50;1.40;;;16.70;99.90;;;;;;5017668;28;20307;-75
2021/11/02 10:51:15;;;;;;;1.63;1.20;;;16.90;99.90;;;;;;5017444;28;20242;-77
2021/11/02 10:53:47;;;;;;;1.40;1.30;;;17.30;99.90;;;;;;5019380;28;20214;-76
2021/11/02 10:56:32;;;;;;;1.30;1.20;;;17.80;99.90;;;;;;5005721;28;20222;-76
2021/11/02 10:59:06;;;;;;;3.00;1.35;;;18.00;99.90;;;;;;5023691;28;20227;-76
2021/11/02 11:01:35;;;;;;;2.65;1.27;;;18.10;99.90;;;;;;5025669;28;20594;-78
2021/11/02 11:04:06;;;;;;;1.42;1.33;;;17.90;99.90;;;;;;5023298;28;20223;-76
2021/11/02 11:06:36;;;;;;;1.85;1.15;;;18.00;99.90;;;;;;5027672;28;20242;-77
2021/11/02 11:09:04;;;;;;;1.20;1.20;;;17.80;99.90;;;;;;5021757;28;20219;-77
2021/11/02 11:11:40;;;;;;;1.30;1.20;;;17.90;99.90;;;;;;5022967;28;20227;-77
2021/11/02 11:14:14;;;;;;;1.27;1.17;;;17.80;99.90;;;;;;5020130;28;20349;-76
2021/11/02 11:16:47;;;;;;;1.00;1.00;;;17.70;99.90;;;;;;5016728;28;20210;-76
2021/11/02 11:19:21;;;;;;;1.40;1.10;;;17.90;99.90;;;;;;5022218;28;20258;-76
2021/11/02 11:21:49;;;;;;;1.15;1.15;;;18.10;99.90;;;;;;5024949;28;20227;-78
2021/11/02 11:24:19;;;;;;;1.08;1.08;;;18.20;99.90;;;;;;5019581;28;20223;-78
2021/11/02 11:26:49;;;;;;;1.05;1.05;;;18.50;99.90;;;;;;5020071;28;20950;-77
2021/11/02 11:29:21;;;;;;;1.02;1.02;;;18.60;99.90;;;;;;5017992;28;20262;-78
2021/11/02 11:31:50;;;;;;;1.20;1.10;;;18.50;99.90;;;;;;5014651;28;20212;-77
2021/11/02 11:34:19;;;;;;;1.02;1.02;;;18.00;99.90;;;;;;5021577;28;20227;-77
2021/11/02 11:36:50;;;;;;;1.40;1.30;;;17.60;99.90;;;;;;5017523;28;20293;-76
2021/11/02 11:39:22;;;;;;;1.05;1.00;;;17.20;99.90;;;;;;5017406;28;20230;-78
2021/11/02 11:41:51;;;;;;;1.20;1.10;;;16.80;99.90;;;;;;5018450;28;20227;-78
2021/11/02 11:44:21;;;;;;;1.40;1.30;;;16.50;99.90;;;;;;5014928;28;20676;-77
2021/11/02 11:46:50;;;;;;;1.23;1.13;;;16.30;99.90;;;;;;5020113;28;20917;-76
2021/11/02 11:49:24;;;;;;;1.10;0.95;;;16.20;99.90;;;;;;5016695;28;20220;-79
2021/11/02 11:51:56;;;;;;;1.02;1.02;;;16.20;99.90;;;;;;5017483;28;20292;-77
2021/11/02 11:54:24;;;;;;;1.05;1.05;;;16.10;99.90;;;;;;5016707;28;20784;-77
2021/11/02 11:57:00;;;;;;;1.08;1.08;;;16.30;99.90;;;;;;5014285;28;20246;-77
2021/11/02 11:59:29;;;;;;;1.33;1.20;;;16.60;99.90;;;;;;5025118;28;20223;-76
2021/11/02 12:02:05;;;;;;;1.27;1.17;;;17.20;99.90;;;;;;5022552;28;20227;-77
2021/11/02 12:04:36;;;;;;;1.75;1.42;;;17.90;99.90;;;;;;5021917;28;20231;-77
2021/11/02 12:07:14;;;;;;;1.20;1.10;;;17.90;99.90;;;;;;5018332;28;20220;-76
2021/11/02 12:09:43;;;;;;;1.40;1.30;;;17.80;99.90;;;;;;5020427;28;20234;-77
2021/11/02 12:12:12;;;;;;;1.40;1.30;;;17.90;99.90;;;;;;5022660;28;20230;-76
2021/11/02 12:14:53;;;;;;;2.25;1.20;;;18.00;99.90;;;;;;5024401;28;20219;-78
2021/11/02 12:17:24;;;;;;;1.08;1.00;;;17.90;99.90;;;;;;5020879;28;20482;-78
2021/11/02 12:20:04;;;;;;;1.15;1.05;;;17.90;99.90;;;;;;5021986;28;20619;-78
2021/11/02 12:22:37;;;;;;;1.25;1.20;;;18.20;99.90;;;;;;5020395;28;20231;-78
2021/11/02 12:25:13;;;;;;;1.20;1.10;;;18.20;99.90;;;;;;5021539;28;20238;-78
2021/11/02 12:27:42;;;;;;;1.20;1.10;;;17.90;99.90;;;;;;5021732;28;20234;-77
2021/11/02 12:30:13;;;;;;;1.10;1.10;;;17.50;99.90;;;;;;5017487;28;20223;-77
2021/11/02 12:32:46;;;;;;;1.83;1.08;;;17.40;99.90;;;;;;5014161;28;20219;-78
2021/11/02 12:35:19;;;;;;;3.13;1.35;;;17.30;99.90;;;;;;5021037;28;20314;-79
2021/11/02 12:37:54;;;;;;;1.10;1.10;;;17.30;99.90;;;;;;5019929;28;20259;-78
2021/11/02 12:40:24;;;;;;;0.93;0.93;;;17.20;99.90;;;;;;5021895;28;20231;-76
2021/11/02 12:42:51;;;;;;;1.45;1.35;;;17.10;99.90;;;;;;5024594;28;21788;-77
2021/11/02 12:45:22;;;;;;;1.10;1.00;;;16.80;99.90;;;;;;5023754;28;20246;-78
2021/11/02 12:47:50;;;;;;;1.52;1.15;;;16.80;99.90;;;;;;5025744;28;20223;-78
2021/11/02 12:50:21;;;;;;;1.35;1.25;;;16.90;99.90;;;;;;5021411;28;20330;-77
2021/11/02 12:52:49;;;;;;;0.88;0.88;;;17.10;99.90;;;;;;5022798;28;20222;-76
2021/11/02 12:55:19;;;;;;;1.23;1.13;;;17.50;99.90;;;;;;5024061;28;20563;-78
2021/11/02 12:57:47;;;;;;;0.90;0.90;;;18.10;99.90;;;;;;5021327;28;20231;-77
2021/11/02 13:00:26;;;;;;;0.90;0.90;;;18.30;99.90;;;;;;5020059;28;20724;-78
2021/11/02 13:03:02;;;;;;;1.10;1.10;;;18.10;99.90;;;;;;5024797;28;20362;-77
2021/11/02 13:05:31;;;;;;;0.98;0.98;;;17.90;99.90;;;;;;5021529;28;20367;-78
2021/11/02 13:08:07;;;;;;;1.25;1.08;;;17.70;99.90;;;;;;5024655;28;20223;-78
2021/11/02 13:10:35;;;;;;;1.42;0.90;;;17.40;99.90;;;;;;5019925;28;20261;-77
2021/11/02 13:13:06;;;;;;;0.90;0.90;;;17.20;99.90;;;;;;5021626;28;20306;-79
2021/11/02 13:15:48;;;;;;;1.42;1.33;;;16.90;99.90;;;;;;5023665;28;20228;-77
2021/11/02 13:18:30;;;;;;;1.08;1.08;;;16.60;99.90;;;;;;5023536;28;20215;-78
2021/11/02 13:21:17;;;;;;;1.00;1.00;;;16.20;99.90;;;;;;5028240;28;20235;-76
2021/11/02 13:23:49;;;;;;;3.60;1.40;;;16.20;99.90;;;;;;5023627;28;20227;-77
2021/11/02 13:26:18;;;;;;;1.45;1.10;;;16.40;99.90;;;;;;5022023;28;20246;-78
2021/11/02 13:28:45;;;;;;;0.98;0.98;;;16.50;99.90;;;;;;5024025;28;20235;-77
2021/11/02 13:31:26;;;;;;;1.02;1.02;;;16.50;99.90;;;;;;5026219;28;20234;-78
2021/11/02 13:33:58;;;;;;;1.25;1.20;;;16.50;99.90;;;;;;5018387;28;20230;-77
2021/11/02 13:36:25;;;;;;;1.23;1.13;;;16.10;99.90;;;;;;5025665;28;20223;-77
2021/11/02 13:38:58;;;;;;;1.23;1.10;;;16.10;99.90;;;;;;5021885;28;20228;-77
2021/11/02 13:41:27;;;;;;;1.20;1.20;;;16.30;99.90;;;;;;5025759;28;20276;-77
2021/11/02 13:43:56;;;;;;;1.02;1.00;;;16.40;99.90;;;;;;5022513;28;20230;-76
2021/11/02 13:46:26;;;;;;;1.50;1.13;;;16.50;99.90;;;;;;5022922;28;20220;-77
2021/11/02 13:48:54;;;;;;;1.10;1.10;;;16.50;99.90;;;;;;4995691;28;20230;-78
2021/11/02 13:51:24;;;;;;;0.90;0.90;;;16.30;99.90;;;;;;5019586;28;20223;-78
2021/11/02 13:53:52;;;;;;;0.90;0.90;;;16.30;99.90;;;;;;5015119;28;20228;-76
2021/11/02 13:56:21;;;;;;;1.40;1.30;;;16.20;99.90;;;;;;5021138;28;20387;-77
2021/11/02 13:58:50;;;;;;;1.27;1.17;;;16.20;99.90;;;;;;5022553;28;20548;-77
2021/11/02 14:01:23;;;;;;;1.67;1.20;;;16.10;99.90;;;;;;5020506;28;20220;-78
2021/11/02 14:03:57;;;;;;;1.20;1.20;;;15.90;99.90;;;;;;5027957;28;20227;-77
2021/11/02 14:06:28;;;;;;;0.90;0.90;;;15.50;99.90;;;;;;5027105;28;20222;-78
2021/11/02 14:08:57;;;;;;;2.47;1.10;;;15.30;99.90;;;;;;5029100;28;20243;-77
2021/11/02 14:11:26;;;;;;;1.00;1.00;;;15.10;99.90;;;;;;5026187;28;20227;-76
2021/11/02 14:13:54;;;;;;;0.98;0.98;;;15.00;99.90;;;;;;5027455;28;20250;-77
2021/11/02 14:16:35;;;;;;;1.38;1.25;;;14.90;99.90;;;;;;5027552;28;20230;-78
2021/11/02 14:19:04;;;;;;;1.30;1.20;;;14.90;99.90;;;;;;5024500;28;20613;-76
2021/11/02 14:21:51;;;;;;;1.05;1.00;;;14.80;99.90;;;;;;5030192;28;20230;-76
2021/11/02 14:24:32;;;;;;;0.95;0.95;;;14.80;99.90;;;;;;5027900;28;20268;-77
2021/11/02 14:26:59;;;;;;;1.17;1.17;;;14.90;99.90;;;;;;5027414;28;20664;-76
2021/11/02 14:29:54;;;;;;;0.95;0.95;;;14.90;99.90;;;;;;5024668;28;20227;-77
2021/11/02 14:32:47;;;;;;;1.10;1.00;;;14.80;99.90;;;;;;5021045;28;20707;-78
2021/11/02 14:35:51;;;;;;;1.23;1.23;;;14.80;99.90;;;;;;5020595;28;20306;-77
2021/11/02 14:38:21;;;;;;;1.50;1.40;;;14.70;99.90;;;;;;5020394;28;20306;-77
2021/11/02 14:40:49;;;;;;;1.38;1.20;;;14.70;99.90;;;;;;5023558;28;20231;-76
2021/11/02 14:43:25;;;;;;;1.23;1.23;;;14.60;99.90;;;;;;5024075;28;20251;-78
2021/11/02 14:45:54;;;;;;;1.08;1.08;;;14.50;99.90;;;;;;5022898;28;20251;-78
2021/11/02 14:48:49;;;;;;;1.05;1.05;;;14.50;99.90;;;;;;5023591;28;20220;-77
2021/11/02 14:51:26;;;;;;;1.17;1.17;;;14.50;99.90;;;;;;5010337;28;20616;-77
2021/11/02 14:53:57;;;;;;;1.25;1.23;;;14.40;99.90;;;;;;5018774;28;20230;-76
2021/11/02 14:56:34;;;;;;;1.15;1.15;;;14.40;99.90;;;;;;5019867;28;20219;-77
2021/11/02 14:59:03;;;;;;;1.38;1.27;;;14.20;99.90;;;;;;5018367;28;20223;-76
2021/11/02 15:02:04;;;;;;;1.00;1.00;;;14.20;99.90;;;;;;5021519;28;20640;-76
2021/11/02 15:04:32;;;;;;;1.27;1.17;;;14.20;99.90;;;;;;5022160;28;20219;-77
2021/11/02 15:07:02;;;;;;;1.33;1.30;;;14.10;99.90;;;;;;5023059;28;20220;-77
2021/11/02 15:09:33;;;;;;;1.42;1.33;;;14.10;99.90;;;;;;5025628;28;20253;-76
2021/11/02 15:12:03;;;;;;;1.50;1.40;;;14.10;99.90;;;;;;5021223;28;20223;-77
2021/11/02 15:14:33;;;;;;;1.50;1.40;;;14.00;99.90;;;;;;5020132;28;20551;-77
2021/11/02 15:17:03;;;;;;;1.58;1.48;;;14.00;99.90;;;;;;5015013;28;20230;-78
2021/11/02 15:19:33;;;;;;;1.30;1.15;;;13.80;99.90;;;;;;5020752;28;20219;-77
2021/11/02 15:22:06;;;;;;;1.50;1.40;;;13.80;99.90;;;;;;5018190;28;20219;-78
2021/11/02 15:24:36;;;;;;;1.90;1.80;;;13.70;99.90;;;;;;5018988;28;20246;-77
2021/11/02 15:27:05;;;;;;;1.80;1.70;;;13.60;99.90;;;;;;5020777;28;20226;-77
2021/11/02 15:29:35;;;;;;;1.70;1.60;;;13.50;99.90;;;;;;5021284;28;20235;-76
2021/11/02 15:32:06;;;;;;;1.38;1.27;;;13.50;99.90;;;;;;5018417;28;20227;-76
2021/11/02 15:34:44;;;;;;;1.45;1.35;;;13.30;99.90;;;;;;5019433;28;20220;-77
2021/11/02 15:37:13;;;;;;;2.15;1.50;;;13.20;99.90;;;;;;5020005;28;20277;-77
2021/11/02 15:39:42;;;;;;;1.60;1.50;;;13.10;99.90;;;;;;5008019;28;20230;-77
2021/11/02 15:42:26;;;;;;;1.80;1.70;;;13.10;99.90;;;;;;5019731;28;20226;-77
2021/11/02 15:44:56;;;;;;;1.80;1.70;;;13.00;99.90;;;;;;5014339;28;20218;-76
2021/11/02 15:47:26;;;;;;;3.78;3.38;;;12.90;99.90;;;;;;5019657;28;20236;-76
2021/11/02 15:49:59;;;;;;;8.70;6.30;;;12.80;99.90;;;;;;5027203;23;20223;-76
2021/11/02 15:52:29;;;;;;;6.18;5.47;;;12.80;99.90;;;;;;5002378;28;20230;-75
2021/11/02 15:55:01;;;;;;;4.68;4.28;;;12.70;99.90;;;;;;5008999;28;20246;-74
2021/11/02 15:57:28;;;;;;;3.50;3.20;;;12.70;99.90;;;;;;5009271;28;20231;-72
2021/11/02 16:00:07;;;;;;;3.42;3.13;;;12.70;99.90;;;;;;5009093;28;20222;-74
2021/11/02 16:02:35;;;;;;;2.40;2.20;;;12.60;99.90;;;;;;5009082;28;20223;-75
2021/11/02 16:05:05;;;;;;;2.40;2.20;;;12.60;99.90;;;;;;5013927;28;20775;-73
2021/11/02 16:07:33;;;;;;;1.80;1.70;;;12.50;99.90;;;;;;5012686;28;20307;-75
2021/11/02 16:10:01;;;;;;;1.92;1.83;;;12.50;99.90;;;;;;5012541;28;20227;-76
2021/11/02 16:12:32;;;;;;;2.10;2.00;;;12.40;99.90;;;;;;5016415;28;20219;-75
2021/11/02 16:15:03;;;;;;;2.08;1.98;;;12.30;99.90;;;;;;5012547;28;20397;-76
2021/11/02 16:17:31;;;;;;;2.92;2.45;;;12.30;99.90;;;;;;5013709;28;20239;-75
2021/11/02 16:19:59;;;;;;;2.63;2.42;;;12.20;99.90;;;;;;5015325;28;20216;-75
2021/11/02 16:22:27;;;;;;;2.22;2.13;;;12.20;99.90;;;;;;5011605;28;20714;-75
2021/11/02 16:25:20;;;;;;;2.25;2.15;;;12.10;99.90;;;;;;5013052;28;20231;-77
2021/11/02 16:27:59;;;;;;;1.60;1.50;;;12.00;99.90;;;;;;5000587;28;20219;-74
2021/11/02 16:30:29;;;;;;;2.00;1.90;;;12.00;99.90;;;;;;5016739;28;20647;-75
2021/11/02 16:32:57;;;;;;;2.28;1.52;;;11.90;99.90;;;;;;5013481;28;20220;-74
2021/11/02 16:35:43;;;;;;;1.80;1.70;;;11.90;99.90;;;;;;5016335;28;20254;-74
2021/11/02 16:38:28;;;;;;;1.80;1.70;;;11.80;99.90;;;;;;5018331;28;20219;-79
2021/11/02 16:40:59;;;;;;;1.70;1.60;;;11.80;99.90;;;;;;5017014;28;20227;-76
2021/11/02 16:43:32;;;;;;;1.55;1.45;;;11.70;99.90;;;;;;5009504;28;20694;-76
2021/11/02 16:46:00;;;;;;;1.65;1.55;;;11.70;99.90;;;;;;5015447;28;20216;-78
2021/11/02 16:48:37;;;;;;;1.63;1.52;;;11.70;99.90;;;;;;5011888;28;20227;-74
2021/11/02 16:51:04;;;;;;;1.60;1.50;;;11.60;99.90;;;;;;5017342;28;20227;-77
2021/11/02 16:53:32;;;;;;;1.85;1.75;;;11.60;99.90;;;;;;5009716;28;20242;-74
2021/11/02 16:56:04;;;;;;;1.70;1.60;;;11.60;99.90;;;;;;5012398;28;20223;-74
2021/11/02 16:58:36;;;;;;;1.90;1.80;;;11.60;99.90;;;;;;5014039;28;20227;-78
2021/11/02 17:01:25;;;;;;;1.83;1.73;;;11.60;99.90;;;;;;5011267;28;20238;-76
2021/11/02 17:03:53;;;;;;;1.90;1.80;;;11.50;99.90;;;;;;5013489;28;20255;-76
2021/11/02 17:06:24;;;;;;;1.98;1.88;;;11.50;99.90;;;;;;5025665;28;20239;-74
2021/11/02 17:09:15;;;;;;;2.05;1.95;;;11.50;99.90;;;;;;5022699;28;20332;-74
2021/11/02 17:11:52;;;;;;;1.85;1.75;;;11.50;99.90;;;;;;5015117;28;20231;-76
2021/11/02 17:14:19;;;;;;;1.80;1.70;;;11.50;99.90;;;;;;5020349;28;20275;-74
2021/11/02 17:16:52;;;;;;;1.70;1.60;;;11.50;99.90;;;;;;5012828;28;20253;-73
2021/11/02 17:19:20;;;;;;;1.30;1.30;;;11.50;99.90;;;;;;5018477;28;20617;-75
2021/11/02 17:21:50;;;;;;;1.63;1.52;;;11.40;99.90;;;;;;5018023;28;20715;-77
2021/11/02 17:24:18;;;;;;;1.60;1.50;;;11.40;99.90;;;;;;5018808;28;20240;-74
2021/11/02 17:26:45;;;;;;;1.95;1.85;;;11.40;99.90;;;;;;5018949;28;20223;-75
2021/11/02 17:29:14;;;;;;;1.80;1.70;;;11.40;99.90;;;;;;5021026;28;20234;-76
2021/11/02 17:31:43;;;;;;;1.70;1.60;;;11.40;99.90;;;;;;5017416;28;20231;-74
2021/11/02 17:34:21;;;;;;;1.75;1.65;;;11.40;99.90;;;;;;5013778;28;20223;-80
2021/11/02 17:36:51;;;;;;;2.00;1.90;;;11.40;99.90;;;;;;5015409;28;20764;-74
2021/11/02 17:39:20;;;;;;;1.83;1.73;;;11.40;99.90;;;;;;5020407;28;20749;-76
2021/11/02 17:41:48;;;;;;;1.70;1.60;;;11.40;99.90;;;;;;5016488;28;20235;-76
2021/11/02 17:44:16;;;;;;;2.03;1.92;;;11.40;99.90;;;;;;5016380;28;20593;-74
2021/11/02 17:46:44;;;;;;;2.35;2.25;;;11.40;99.90;;;;;;5011425;28;20250;-76
2021/11/02 17:49:11;;;;;;;3.88;3.58;;;11.40;99.90;;;;;;5016161;28;20220;-75
2021/11/02 17:51:40;;;;;;;3.75;2.80;;;11.40;99.90;;;;;;5015742;28;20246;-75
2021/11/02 17:54:08;;;;;;;3.25;3.05;;;11.40;99.90;;;;;;5014296;28;20219;-75